Time;durP1;ratioP1;P1;durP2;ratioP2;P2;SDS_P1;SDS_P2;PMS_P1;PMS_P2;Temp;Humidity;BMP_temperature;BMP_pressure;BME280_temperature;BME280_humidity;BME280_pressure;Samples;Min_cycle;Max_cycle;Signal;HPM_P1;HPM_P2
2022/06/12 00:00:22;;;;;;;5.72;5.20;;;;;;;17.22;75.86;94670.97;4990640;28;20220;-67
2022/06/12 00:02:48;;;;;;;5.80;5.38;;;;;;;17.31;75.91;94674.25;4986441;28;20238;-65
2022/06/12 00:05:16;;;;;;;7.97;5.70;;;;;;;17.31;75.72;94675.06;4993030;28;20301;-65
2022/06/12 00:07:42;;;;;;;5.90;5.40;;;;;;;17.45;75.16;94675.09;4999682;28;20269;-67
2022/06/12 00:10:08;;;;;;;6.88;6.28;;;;;;;17.35;75.67;94676.31;4999380;28;20212;-61
2022/06/12 00:12:35;;;;;;;6.53;6.03;;;;;;;17.26;76.26;94676.69;4999917;28;20222;-62
2022/06/12 00:15:01;;;;;;;7.30;6.63;;;;;;;17.32;76.22;94673.22;5001397;28;20227;-63
2022/06/12 00:17:26;;;;;;;7.65;6.93;;;;;;;17.33;76.33;94672.22;5008625;28;20239;-66
2022/06/12 00:19:52;;;;;;;7.95;6.88;;;;;;;17.30;76.58;94669.97;5008645;28;20293;-63
2022/06/12 00:22:18;;;;;;;7.22;6.38;;;;;;;17.29;76.72;94670.97;4997310;28;20230;-67
2022/06/12 00:24:43;;;;;;;7.10;6.60;;;;;;;17.27;76.73;94659.72;4992697;28;20242;-64
2022/06/12 00:27:09;;;;;;;7.38;6.78;;;;;;;17.23;76.66;94671.78;4991464;28;20223;-63
2022/06/12 00:29:36;;;;;;;8.10;7.47;;;;;;;17.17;76.81;94673.41;5003038;28;20223;-61
2022/06/12 00:32:09;;;;;;;8.32;7.57;;;;;;;17.16;77.37;94663.78;4995553;28;20219;-66
2022/06/12 00:34:58;;;;;;;9.13;6.88;;;;;;;17.19;77.44;94658.91;4993498;28;20428;-66
2022/06/12 00:37:26;;;;;;;7.88;6.82;;;;;;;17.26;76.89;94674.84;5003991;28;20203;-65
2022/06/12 00:39:54;;;;;;;7.25;6.57;;;;;;;17.19;76.98;94658.91;5000875;28;20314;-63
2022/06/12 00:42:40;;;;;;;7.90;7.10;;;;;;;17.19;77.37;94669.53;5003229;28;20282;-67
2022/06/12 00:45:28;;;;;;;7.40;6.63;;;;;;;17.19;77.71;94666.88;4991473;28;20251;-64
2022/06/12 00:47:57;;;;;;;7.90;6.93;;;;;;;17.18;77.51;94672.38;5001169;28;20237;-67
2022/06/12 00:50:24;;;;;;;7.78;7.15;;;;;;;17.17;77.72;94670.75;4992173;28;20262;-67
2022/06/12 00:52:52;;;;;;;7.43;6.88;;;;;;;17.16;77.89;94661.13;4995834;28;20235;-68
2022/06/12 00:55:24;;;;;;;7.90;7.30;;;;;;;17.16;78.03;94667.28;4992627;28;20207;-62
2022/06/12 00:57:52;;;;;;;8.00;7.32;;;;;;;17.19;77.62;94660.75;4994564;28;20269;-65
2022/06/12 01:00:18;;;;;;;7.55;6.88;;;;;;;17.15;77.76;94655.00;4981221;28;20441;-64
2022/06/12 01:02:43;;;;;;;7.50;6.88;;;;;;;17.04;78.18;94652.94;4993073;28;20235;-67
2022/06/12 01:07:59;;;;;;;7.07;6.47;;;;;;;17.06;78.39;94658.88;4993522;28;20225;-68
2022/06/12 01:10:28;;;;;;;9.60;6.93;;;;;;;16.98;78.28;94651.91;5007625;28;20235;-66
2022/06/12 01:13:12;;;;;;;7.80;7.00;;;;;;;17.03;78.50;94648.66;5001869;28;20225;-67
2022/06/12 01:15:43;;;;;;;8.13;7.43;;;;;;;17.06;78.55;94644.78;4972944;28;20227;-67
2022/06/12 01:18:14;;;;;;;7.85;7.18;;;;;;;17.07;78.40;94643.75;4990391;28;20240;-64
2022/06/12 01:20:48;;;;;;;7.95;7.20;;;;;;;17.04;78.29;94650.28;4986265;28;20231;-63
2022/06/12 01:23:58;;;;;;;7.57;6.97;;;;;;;16.98;79.17;94653.75;4980883;28;20243;-68
2022/06/12 01:27:01;;;;;;;7.45;6.85;;;;;;;17.01;78.66;94645.38;4943553;28;20230;-67
2022/06/12 01:29:59;;;;;;;7.75;7.05;;;;;;;16.95;78.64;94638.22;4961148;28;20239;-65
2022/06/12 01:32:46;;;;;;;9.02;8.10;;;;;;;16.99;78.90;94631.47;4959384;28;20224;-67
2022/06/12 01:35:21;;;;;;;7.57;6.97;;;;;;;16.91;78.82;94632.47;4960732;28;20245;-68
2022/06/12 01:37:56;;;;;;;8.55;7.85;;;;;;;16.89;78.97;94634.53;4938256;28;20328;-64
2022/06/12 01:40:36;;;;;;;8.07;7.45;;;;;;;16.97;78.71;94636.16;4946125;28;20208;-63
2022/06/12 01:43:25;;;;;;;7.90;7.30;;;;;;;16.96;78.39;94642.50;4946301;28;20240;-61
2022/06/12 01:46:03;;;;;;;8.40;7.70;;;;;;;16.94;78.47;94645.34;4951020;28;20321;-68
2022/06/12 01:48:43;;;;;;;7.85;6.75;;;;;;;16.97;78.09;94633.50;4965963;28;20227;-67
2022/06/12 01:51:35;;;;;;;7.93;7.22;;;;;;;16.94;78.22;94640.03;4949589;28;20329;-66
2022/06/12 01:54:06;;;;;;;8.13;7.32;;;;;;;16.94;78.05;94633.91;4966123;28;20224;-61
2022/06/12 01:57:16;;;;;;;8.10;7.47;;;;;;;16.94;78.16;94641.88;4943652;28;20220;-65
2022/06/12 02:00:15;;;;;;;7.18;6.57;;;;;;;16.91;78.02;94645.75;4948645;28;20223;-64
2022/06/12 02:02:48;;;;;;;8.15;7.45;;;;;;;16.89;77.99;94633.69;4974442;28;20238;-63
2022/06/12 02:05:16;;;;;;;7.88;7.18;;;;;;;16.96;77.87;94650.47;4999310;28;20215;-67
2022/06/12 02:07:58;;;;;;;7.70;7.03;;;;;;;17.00;77.44;94646.41;4995650;28;20207;-64
2022/06/12 02:10:44;;;;;;;7.50;6.95;;;;;;;16.95;77.63;94644.34;5004228;28;20268;-64
2022/06/12 02:13:23;;;;;;;7.13;6.45;;;;;;;17.05;77.03;94635.97;4993698;28;20227;-63
2022/06/12 02:16:15;;;;;;;7.53;6.85;;;;;;;16.97;77.05;94638.81;4995047;28;20231;-64
2022/06/12 02:18:58;;;;;;;7.85;7.22;;;;;;;16.95;77.15;94646.19;4994680;28;20234;-68
2022/06/12 02:21:28;;;;;;;7.68;7.03;;;;;;;16.92;77.30;94649.19;4991079;28;20228;-69
2022/06/12 02:24:01;;;;;;;7.15;6.65;;;;;;;16.86;77.41;94634.88;4987535;28;20314;-64
2022/06/12 02:26:34;;;;;;;7.85;7.00;;;;;;;16.98;77.10;94638.63;4985616;28;20234;-62
2022/06/12 02:29:05;;;;;;;7.40;6.75;;;;;;;16.87;77.40;94633.09;4997518;28;20262;-68
2022/06/12 02:31:41;;;;;;;7.88;7.28;;;;;;;16.86;77.44;94631.44;5005933;28;20206;-66
2022/06/12 02:34:25;;;;;;;7.38;6.78;;;;;;;16.91;77.46;94634.31;5008781;28;20203;-66
2022/06/12 02:36:56;;;;;;;7.15;6.55;;;;;;;16.85;77.90;94643.06;5005624;28;20288;-67
2022/06/12 02:39:38;;;;;;;7.55;6.85;;;;;;;16.86;77.73;94640.19;4996411;28;20230;-66
2022/06/12 02:42:24;;;;;;;7.50;6.75;;;;;;;16.83;77.70;94640.59;4995672;28;20288;-65
2022/06/12 02:45:01;;;;;;;7.15;6.50;;;;;;;16.91;77.14;94639.63;4997127;28;20349;-67
2022/06/12 02:47:30;;;;;;;8.80;6.68;;;;;;;16.93;77.05;94634.94;5002236;28;20261;-67
2022/06/12 02:49:59;;;;;;;7.50;6.82;;;;;;;16.84;77.56;94652.03;4994084;28;20230;-69
2022/06/12 02:52:53;;;;;;;7.45;6.88;;;;;;;16.91;77.40;94650.25;5001312;28;20199;-68
2022/06/12 02:55:24;;;;;;;7.10;6.50;;;;;;;16.91;77.20;94650.25;5000039;28;20227;-62
2022/06/12 02:58:16;;;;;;;7.45;6.88;;;;;;;16.82;77.68;94651.44;5014004;28;20230;-63
2022/06/12 03:00:46;;;;;;;8.02;7.22;;;;;;;16.79;77.69;94646.53;4992833;28;20227;-65
2022/06/12 03:03:51;;;;;;;7.57;7.03;;;;;;;16.76;77.95;94659.16;5004340;28;20227;-66
2022/06/12 03:06:19;;;;;;;7.82;7.13;;;;;;;16.73;77.87;94653.41;4963404;28;20278;-67
2022/06/12 03:08:49;;;;;;;7.90;7.05;;;;;;;16.72;77.80;94655.25;4944368;28;20224;-66
2022/06/12 03:11:18;;;;;;;8.35;7.35;;;;;;;16.73;77.79;94654.25;4974419;28;20220;-64
2022/06/12 03:13:46;;;;;;;7.80;7.10;;;;;;;16.75;77.80;94656.69;4973992;28;20223;-67
2022/06/12 03:16:19;;;;;;;7.30;6.60;;;;;;;16.83;77.51;94653.06;4961295;28;20203;-68
2022/06/12 03:18:54;;;;;;;7.90;7.20;;;;;;;16.83;77.51;94655.72;4954598;28;20275;-62
2022/06/12 03:21:44;;;;;;;7.38;6.75;;;;;;;16.78;77.69;94651.00;4958506;28;20226;-65
2022/06/12 03:24:33;;;;;;;8.27;7.55;;;;;;;16.78;77.67;94656.31;4973217;28;20235;-64
2022/06/12 03:27:34;;;;;;;8.27;7.57;;;;;;;16.82;77.53;94646.94;4959921;28;20231;-68
2022/06/12 03:30:11;;;;;;;7.63;6.90;;;;;;;16.71;78.07;94656.28;4970810;28;20265;-67
2022/06/12 03:32:49;;;;;;;8.85;8.05;;;;;;;16.79;77.76;94639.38;4961147;28;20231;-65
2022/06/12 03:35:42;;;;;;;8.35;7.68;;;;;;;16.80;77.67;94641.00;4956447;28;20238;-69
2022/06/12 03:38:10;;;;;;;8.52;7.85;;;;;;;16.87;77.41;94649.81;4977078;28;20231;-64
2022/06/12 03:40:38;;;;;;;8.13;7.47;;;;;;;16.80;77.61;94651.63;4975196;28;20223;-66
2022/06/12 03:43:13;;;;;;;8.07;7.38;;;;;;;16.83;77.72;94647.75;4977103;28;20219;-67
2022/06/12 03:46:20;;;;;;;8.32;7.55;;;;;;;16.91;77.20;94652.91;5000723;28;20241;-68
2022/06/12 03:49:25;;;;;;;7.85;7.28;;;;;;;16.88;77.39;94645.34;4961872;28;20309;-64
2022/06/12 03:51:59;;;;;;;8.63;7.75;;;;;;;16.89;77.31;94652.25;4950874;28;20254;-63
2022/06/12 03:54:36;;;;;;;9.05;8.35;;;;;;;16.95;77.15;94648.84;4946683;28;20223;-69
2022/06/12 04:00:08;;;;;;;8.68;8.05;;;;;;;17.04;76.81;94649.47;4966332;28;20316;-64
2022/06/12 04:02:36;;;;;;;8.82;8.10;;;;;;;17.06;76.87;94650.09;4950113;28;20244;-68
2022/06/12 04:05:04;;;;;;;9.27;8.57;;;;;;;17.07;76.68;94649.88;4948613;28;20224;-63
2022/06/12 04:07:33;;;;;;;8.82;8.23;;;;;;;17.12;76.11;94663.38;4949803;28;20275;-67
2022/06/12 04:10:02;;;;;;;9.60;8.80;;;;;;;17.12;76.11;94652.75;4965412;28;20224;-68
2022/06/12 04:12:32;;;;;;;9.30;8.60;;;;;;;17.08;76.31;94654.19;4963993;28;20246;-67
2022/06/12 04:15:12;;;;;;;9.45;8.57;;;;;;;17.10;75.95;94660.09;4948515;28;20242;-66
2022/06/12 04:17:39;;;;;;;10.52;9.63;;;;;;;17.04;76.42;94655.59;4950006;28;20236;-67
2022/06/12 04:20:09;;;;;;;9.20;8.50;;;;;;;17.02;76.71;94659.47;4949483;28;20228;-63
2022/06/12 04:22:56;;;;;;;9.80;9.00;;;;;;;17.02;76.79;94662.13;4948290;28;20234;-65
2022/06/12 04:25:33;;;;;;;9.25;8.63;;;;;;;17.11;76.42;94668.91;4964609;28;20211;-64
2022/06/12 04:27:59;;;;;;;9.70;9.00;;;;;;;17.07;76.52;94665.81;4969719;28;20268;-68
2022/06/12 04:30:27;;;;;;;10.43;9.68;;;;;;;17.10;76.42;94668.06;4999096;28;20234;-69
2022/06/12 04:33:20;;;;;;;10.45;9.45;;;;;;;17.03;76.93;94663.78;4992721;28;20610;-66
2022/06/12 04:35:51;;;;;;;10.63;9.82;;;;;;;17.10;76.80;94670.72;4994318;28;20222;-68
2022/06/12 04:38:17;;;;;;;10.45;9.55;;;;;;;17.11;76.72;94682.19;4994743;28;20231;-62
2022/06/12 04:40:42;;;;;;;10.32;9.63;;;;;;;16.93;77.20;94677.41;5003451;28;20328;-67
2022/06/12 04:43:08;;;;;;;10.93;10.02;;;;;;;16.99;77.36;94673.97;5002111;28;20226;-65
2022/06/12 04:45:33;;;;;;;11.05;10.15;;;;;;;17.02;77.42;94678.88;4994424;28;20233;-63
2022/06/12 04:48:01;;;;;;;11.20;10.40;;;;;;;17.05;77.26;94675.00;5003327;28;20239;-68
2022/06/12 04:50:26;;;;;;;11.20;10.13;;;;;;;17.10;77.03;94670.72;4998091;28;20259;-66
2022/06/12 04:52:52;;;;;;;11.43;10.52;;;;;;;17.15;76.84;94683.41;5001123;28;20286;-68
2022/06/12 04:55:17;;;;;;;11.00;9.98;;;;;;;17.17;76.73;94681.38;5006089;28;20280;-68
2022/06/12 04:57:43;;;;;;;11.45;10.30;;;;;;;17.20;76.61;94686.28;4991990;28;20215;-64
2022/06/12 05:00:09;;;;;;;12.82;11.82;;;;;;;17.21;76.68;94685.25;5002078;28;20234;-65
2022/06/12 05:02:34;;;;;;;11.60;10.60;;;;;;;17.23;76.43;94693.84;4997477;28;20235;-63
2022/06/12 05:05:01;;;;;;;12.25;11.25;;;;;;;17.28;76.60;94690.59;5000859;28;20230;-62
2022/06/12 05:07:27;;;;;;;12.05;11.02;;;;;;;17.36;76.05;94682.44;4998501;28;20230;-66
2022/06/12 05:09:52;;;;;;;11.07;10.18;;;;;;;17.38;76.35;94686.53;5002974;28;20227;-64
2022/06/12 05:12:18;;;;;;;11.10;10.25;;;;;;;17.54;75.24;94684.53;4995275;28;20223;-65
2022/06/12 05:14:43;;;;;;;11.18;10.13;;;;;;;17.61;74.88;94690.63;5001664;28;20277;-67
2022/06/12 05:17:13;;;;;;;11.25;10.25;;;;;;;17.74;74.34;94687.19;4996372;28;20235;-62
2022/06/12 05:19:41;;;;;;;9.63;8.93;;;;;;;17.71;74.21;94684.94;4996414;28;20195;-67
2022/06/12 05:22:08;;;;;;;10.45;9.43;;;;;;;17.67;73.91;94683.69;4993103;28;20227;-64
2022/06/12 05:24:35;;;;;;;10.10;9.30;;;;;;;17.76;73.79;94690.47;4997099;28;20222;-64
2022/06/12 05:27:04;;;;;;;10.38;9.38;;;;;;;17.73;73.86;94683.72;5003276;28;20523;-63
2022/06/12 05:29:34;;;;;;;9.77;8.80;;;;;;;17.84;73.23;94679.66;4999204;28;20238;-66
2022/06/12 05:32:00;;;;;;;10.52;9.63;;;;;;;17.78;73.26;94683.09;4999291;28;20226;-64
2022/06/12 05:34:27;;;;;;;10.38;9.57;;;;;;;17.85;73.85;94684.78;5004375;28;20211;-65
2022/06/12 05:36:53;;;;;;;9.95;9.20;;;;;;;17.95;73.17;94678.22;4995909;28;20230;-65
2022/06/12 05:39:20;;;;;;;10.32;9.43;;;;;;;17.95;73.39;94687.00;4989450;28;20223;-64
2022/06/12 05:41:46;;;;;;;10.52;9.73;;;;;;;17.93;73.09;94697.03;5001138;28;20232;-66
2022/06/12 05:44:13;;;;;;;9.80;9.00;;;;;;;17.97;73.05;94698.25;5003378;28;20223;-62
2022/06/12 05:46:39;;;;;;;9.98;9.27;;;;;;;18.12;72.35;94702.53;5003000;28;20219;-67
2022/06/12 05:49:05;;;;;;;9.82;8.93;;;;;;;18.11;72.53;94701.72;5004659;28;20211;-65
2022/06/12 05:51:32;;;;;;;9.45;8.65;;;;;;;18.06;72.64;94702.34;4988385;28;20232;-69
2022/06/12 05:53:57;;;;;;;9.40;8.73;;;;;;;17.97;72.50;94708.91;4998500;28;20219;-64
2022/06/12 05:56:25;;;;;;;9.63;8.88;;;;;;;17.92;72.95;94705.22;4999553;28;20211;-68
2022/06/12 05:58:51;;;;;;;10.20;9.45;;;;;;;18.00;73.15;94702.34;4990268;28;20595;-65
2022/06/12 06:01:19;;;;;;;9.82;8.95;;;;;;;18.07;72.86;94706.66;4992840;28;20262;-68
2022/06/12 06:03:45;;;;;;;10.38;9.65;;;;;;;18.19;73.05;94704.19;4995438;28;20813;-68
2022/06/12 06:06:16;;;;;;;9.73;8.98;;;;;;;18.25;73.12;94710.50;5001294;28;20285;-67
2022/06/12 06:08:42;;;;;;;10.27;9.43;;;;;;;18.33;72.96;94710.31;4997846;28;20230;-67
2022/06/12 06:11:11;;;;;;;11.35;10.45;;;;;;;18.34;72.88;94711.16;5001444;28;20277;-67
2022/06/12 06:13:37;;;;;;;11.52;10.52;;;;;;;18.34;73.69;94719.94;4994196;28;20207;-67
2022/06/12 06:16:03;;;;;;;12.18;11.07;;;;;;;18.41;73.26;94728.72;5001008;28;20304;-67
2022/06/12 06:18:29;;;;;;;12.02;10.82;;;;;;;18.41;73.15;94720.72;4999957;28;20219;-67
2022/06/12 06:20:57;;;;;;;11.90;10.90;;;;;;;18.45;73.46;94731.81;4999166;28;20315;-62
2022/06/12 06:23:23;;;;;;;10.27;9.48;;;;;;;18.30;72.93;94730.16;4988608;28;20230;-67
2022/06/12 06:25:48;;;;;;;12.00;11.05;;;;;;;18.28;73.34;94731.38;4984686;28;20199;-64
2022/06/12 06:28:14;;;;;;;10.85;10.05;;;;;;;18.32;73.63;94737.13;4994677;28;20286;-66
2022/06/12 06:30:41;;;;;;;12.27;11.13;;;;;;;18.31;73.20;94731.00;4999664;28;20313;-64
2022/06/12 06:33:08;;;;;;;11.20;10.13;;;;;;;18.25;73.23;94742.44;4994684;28;20242;-64
2022/06/12 06:35:34;;;;;;;11.88;10.93;;;;;;;18.32;73.08;94745.94;4996642;28;20227;-65
2022/06/12 06:38:00;;;;;;;11.38;9.93;;;;;;;18.27;73.24;94745.75;4993224;28;20231;-64
2022/06/12 06:40:28;;;;;;;10.00;9.20;;;;;;;18.21;73.25;94750.03;4982012;28;20208;-66
2022/06/12 06:42:54;;;;;;;11.02;10.02;;;;;;;18.15;73.60;94742.88;4999231;28;20227;-64
2022/06/12 06:48:05;;;;;;;12.35;11.18;;;;;;;18.28;73.14;94753.53;4997495;28;20276;-67
2022/06/12 06:50:32;;;;;;;11.38;10.38;;;;;;;18.47;72.76;94754.53;5000694;28;20296;-64
2022/06/12 06:52:59;;;;;;;11.00;10.00;;;;;;;18.51;72.63;94757.59;4991855;28;20230;-65
2022/06/12 06:55:26;;;;;;;9.93;9.13;;;;;;;18.52;72.63;94759.22;4998794;28;20203;-64
2022/06/12 06:57:57;;;;;;;10.18;9.35;;;;;;;18.51;72.41;94755.72;5004984;28;20308;-66
2022/06/12 07:00:30;;;;;;;10.60;9.70;;;;;;;18.49;72.46;94754.31;4986797;28;20424;-64
2022/06/12 07:02:55;;;;;;;11.70;10.70;;;;;;;18.53;72.80;94750.22;4987198;28;20222;-61
2022/06/12 07:05:21;;;;;;;10.40;9.52;;;;;;;18.64;71.87;94762.06;5000829;28;20245;-63
2022/06/12 07:07:47;;;;;;;11.15;10.32;;;;;;;18.62;72.04;94758.81;4990897;28;20203;-63
2022/06/12 07:10:16;;;;;;;10.77;9.98;;;;;;;18.61;71.79;94760.66;4996417;28;20208;-66
2022/06/12 07:12:43;;;;;;;10.50;9.57;;;;;;;18.54;72.63;94759.84;4987082;28;20219;-66
2022/06/12 07:15:09;;;;;;;10.00;9.25;;;;;;;18.50;72.27;94751.44;4987738;28;20225;-66
2022/06/12 07:17:35;;;;;;;11.27;10.35;;;;;;;18.42;72.40;94750.84;4997134;28;20242;-64
2022/06/12 07:20:01;;;;;;;11.35;10.45;;;;;;;18.51;72.84;94761.06;5002152;28;20350;-62
2022/06/12 07:22:26;;;;;;;10.90;10.00;;;;;;;18.59;72.48;94754.69;5002478;28;20219;-65
2022/06/12 07:24:52;;;;;;;11.07;10.18;;;;;;;18.59;72.53;94762.69;4994663;28;20227;-65
2022/06/12 07:27:23;;;;;;;11.57;10.73;;;;;;;18.62;72.74;94764.13;5003789;28;20258;-65
2022/06/12 07:29:49;;;;;;;11.15;10.05;;;;;;;18.63;72.45;94761.25;4992956;28;20303;-65
2022/06/12 07:32:14;;;;;;;10.88;9.98;;;;;;;18.73;71.83;94760.81;4984118;28;20354;-65
2022/06/12 07:34:40;;;;;;;10.98;10.00;;;;;;;18.70;71.46;94767.38;4985595;28;20215;-64
2022/06/12 07:37:05;;;;;;;10.60;9.80;;;;;;;18.78;71.50;94770.88;5001024;28;20221;-67
2022/06/12 07:39:32;;;;;;;10.88;9.85;;;;;;;18.79;70.91;94770.69;5001697;28;20235;-66
2022/06/12 07:41:58;;;;;;;11.10;10.07;;;;;;;18.85;70.97;94775.19;4996066;28;20289;-64
2022/06/12 07:44:27;;;;;;;9.90;9.13;;;;;;;18.81;71.11;94771.28;5001956;28;20225;-64
2022/06/12 07:46:55;;;;;;;10.50;9.50;;;;;;;18.88;71.34;94779.28;5012454;28;20231;-64
2022/06/12 07:49:22;;;;;;;9.98;9.18;;;;;;;18.94;71.24;94783.75;5000829;28;20231;-63
2022/06/12 07:51:49;;;;;;;10.15;9.40;;;;;;;18.88;71.21;94779.28;5002630;28;20238;-65
2022/06/12 07:54:16;;;;;;;11.15;10.10;;;;;;;19.00;70.90;94776.75;5003455;28;20230;-63
2022/06/12 07:56:42;;;;;;;11.05;10.00;;;;;;;19.24;70.53;94780.56;5000258;28;20257;-64
2022/06/12 07:59:08;;;;;;;10.02;9.23;;;;;;;19.43;69.85;94785.00;5001300;28;20224;-64
2022/06/12 08:01:36;;;;;;;9.93;9.23;;;;;;;19.48;69.65;94784.38;4996442;28;20207;-66
2022/06/12 08:04:03;;;;;;;10.63;9.82;;;;;;;19.57;69.53;94783.13;5004162;28;20557;-67
2022/06/12 08:06:29;;;;;;;10.90;10.00;;;;;;;19.50;69.14;94785.78;4992588;28;20227;-61
2022/06/12 08:08:57;;;;;;;56.67;39.85;;;;;;;19.50;69.78;94780.47;4996183;28;20227;-63
2022/06/12 08:11:24;;;;;;;13.07;11.93;;;;;;;19.46;69.65;94787.28;4996448;28;20262;-64
2022/06/12 08:13:50;;;;;;;14.30;13.05;;;;;;;19.43;70.75;94785.00;4995075;28;20204;-65
2022/06/12 08:16:16;;;;;;;15.23;13.95;;;;;;;19.48;70.17;94776.38;4995269;28;20214;-65
2022/06/12 08:18:41;;;;;;;14.18;13.02;;;;;;;19.44;71.27;94780.50;5002178;28;20223;-65
2022/06/12 08:21:11;;;;;;;11.30;10.38;;;;;;;19.53;70.91;94781.88;4979588;28;20230;-66
2022/06/12 08:24:09;;;;;;;13.30;12.10;;;;;;;19.61;69.96;94785.13;4996217;28;20245;-64
2022/06/12 08:26:35;;;;;;;14.32;13.10;;;;;;;19.54;70.62;94791.50;4989446;28;20238;-64
2022/06/12 08:29:09;;;;;;;12.13;11.02;;;;;;;19.55;71.43;94795.84;5003524;28;20228;-68
2022/06/12 08:31:50;;;;;;;14.70;13.25;;;;;;;19.51;72.08;94799.94;5010231;28;20206;-65
2022/06/12 08:35:00;;;;;;;24.60;21.65;;;;;;;19.49;71.63;94799.34;4994307;28;20207;-65
2022/06/12 08:37:30;;;;;;;13.05;12.05;;;;;;;19.47;71.70;94798.75;4947234;28;20295;-68
2022/06/12 08:39:57;;;;;;;12.23;11.07;;;;;;;19.48;72.26;94801.19;4958832;28;20208;-65
2022/06/12 08:42:41;;;;;;;10.50;9.70;;;;;;;19.50;71.67;94799.13;4942957;28;20228;-63
2022/06/12 08:45:17;;;;;;;10.35;9.52;;;;;;;19.73;71.07;94798.66;4937432;28;20290;-64
2022/06/12 08:47:55;;;;;;;11.15;10.32;;;;;;;19.90;70.50;94800.81;4955116;28;20238;-64
2022/06/12 08:50:23;;;;;;;10.15;9.27;;;;;;;19.95;70.75;94804.47;4939158;28;20232;-66
2022/06/12 08:52:59;;;;;;;10.18;9.30;;;;;;;20.01;70.44;94798.25;4932861;28;20205;-64
2022/06/12 08:55:29;;;;;;;9.30;8.52;;;;;;;20.04;70.37;94802.34;4934853;28;20263;-63
2022/06/12 08:58:25;;;;;;;9.13;8.32;;;;;;;20.03;69.18;94792.72;4940940;28;20298;-63
2022/06/12 09:00:51;;;;;;;9.82;8.95;;;;;;;20.23;69.92;94798.75;4932436;28;20308;-65
2022/06/12 09:03:23;;;;;;;9.65;8.85;;;;;;;20.32;69.46;94795.81;4937522;28;20339;-64
2022/06/12 09:06:07;;;;;;;8.75;8.15;;;;;;;20.34;69.77;94796.38;4942910;28;20233;-67
2022/06/12 09:08:43;;;;;;;10.27;9.48;;;;;;;20.32;70.21;94796.63;4954411;28;20228;-66
2022/06/12 09:11:30;;;;;;;10.02;9.13;;;;;;;20.15;70.28;94790.97;4937171;28;20228;-61
2022/06/12 09:14:23;;;;;;;7.97;7.47;;;;;;;20.15;68.78;94804.31;4957253;28;20281;-65
2022/06/12 09:16:51;;;;;;;8.13;7.50;;;;;;;20.10;68.45;94798.84;4992142;28;20226;-64
2022/06/12 09:19:29;;;;;;;8.65;8.05;;;;;;;20.10;69.50;94790.81;4994639;28;20218;-65
2022/06/12 09:21:57;;;;;;;8.98;7.93;;;;;;;20.26;69.78;94797.47;4992439;28;20223;-65
2022/06/12 09:24:57;;;;;;;8.75;8.05;;;;;;;20.46;69.24;94802.66;4989966;28;20290;-63
2022/06/12 09:27:44;;;;;;;8.50;7.80;;;;;;;20.56;67.89;94804.88;5002841;28;20280;-65
2022/06/12 09:30:23;;;;;;;8.40;7.70;;;;;;;20.58;67.49;94800.13;5008030;28;20342;-67
2022/06/12 09:33:11;;;;;;;8.60;7.90;;;;;;;20.65;66.87;94807.03;5001923;28;20362;-65
2022/06/12 09:35:57;;;;;;;8.20;7.40;;;;;;;20.72;68.06;94816.88;4992422;28;20239;-64
2022/06/12 09:38:51;;;;;;;9.02;8.23;;;;;;;20.65;67.70;94807.03;5003473;28;20231;-66
2022/06/12 09:41:19;;;;;;;8.95;8.25;;;;;;;20.81;68.28;94807.53;4989662;28;20247;-65
2022/06/12 09:44:12;;;;;;;9.57;8.77;;;;;;;20.83;67.39;94808.13;4992919;28;20211;-67
2022/06/12 09:46:46;;;;;;;9.50;8.85;;;;;;;20.79;68.33;94812.25;4993870;28;20198;-67
2022/06/12 09:49:12;;;;;;;8.23;7.53;;;;;;;20.73;67.46;94813.97;5005094;28;20210;-68
2022/06/12 09:51:43;;;;;;;8.10;7.40;;;;;;;20.79;66.99;94809.59;4999979;28;20234;-66
2022/06/12 09:54:12;;;;;;;7.97;7.28;;;;;;;20.80;66.96;94805.91;4991712;28;20231;-66
2022/06/12 09:56:47;;;;;;;8.10;7.40;;;;;;;20.78;66.04;94810.63;4997724;28;20231;-67
2022/06/12 09:59:31;;;;;;;8.32;7.55;;;;;;;20.74;66.46;94801.41;4990692;28;20235;-65
2022/06/12 10:02:01;;;;;;;9.07;8.38;;;;;;;20.52;68.26;94801.78;4988398;28;20250;-62
2022/06/12 10:04:36;;;;;;;7.85;7.30;;;;;;;20.35;67.96;94804.19;4993415;28;20228;-65
2022/06/12 10:07:13;;;;;;;8.45;7.75;;;;;;;20.15;68.34;94800.84;4988253;28;20218;-70
2022/06/12 10:09:45;;;;;;;8.30;7.70;;;;;;;20.03;68.63;94806.06;5010175;28;20635;-65
2022/06/12 10:12:20;;;;;;;7.82;7.22;;;;;;;19.88;69.48;94797.53;5002871;28;20217;-67
2022/06/12 10:15:11;;;;;;;8.10;7.50;;;;;;;19.87;70.48;94803.91;5001850;28;20229;-64
2022/06/12 10:17:51;;;;;;;9.77;8.00;;;;;;;19.87;70.70;94801.25;4997874;28;20324;-62
2022/06/12 10:20:29;;;;;;;8.02;7.30;;;;;;;19.94;69.66;94799.31;4990740;28;20256;-70
2022/06/12 10:22:56;;;;;;;7.47;6.95;;;;;;;20.02;70.01;94791.06;4989162;28;20233;-64
2022/06/12 10:25:34;;;;;;;7.82;7.22;;;;;;;20.26;68.88;94798.31;4995182;28;20246;-65
2022/06/12 10:28:05;;;;;;;7.72;7.05;;;;;;;20.34;67.81;94791.88;5000873;28;20242;-65
2022/06/12 10:30:40;;;;;;;6.90;6.30;;;;;;;20.48;67.84;94784.56;5000477;28;20223;-64
2022/06/12 10:33:31;;;;;;;7.40;6.75;;;;;;;20.70;67.29;94793.84;5000621;28;20214;-66
2022/06/12 10:36:00;;;;;;;7.10;6.60;;;;;;;20.85;66.36;94790.00;5005241;28;20214;-65
2022/06/12 10:38:28;;;;;;;7.20;6.55;;;;;;;20.97;65.39;94793.56;4996191;28;20226;-68
2022/06/12 10:41:02;;;;;;;9.20;6.18;;;;;;;20.91;65.95;94783.78;5000325;28;20230;-63
2022/06/12 10:43:32;;;;;;;7.90;6.50;;;;;;;21.04;64.47;94785.50;5007716;28;20219;-68
2022/06/12 10:46:15;;;;;;;6.63;6.13;;;;;;;21.10;64.52;94787.28;5000018;28;20843;-66
2022/06/12 10:48:43;;;;;;;6.88;6.32;;;;;;;21.11;63.97;94788.91;4996827;28;20742;-63
2022/06/12 10:51:11;;;;;;;7.47;6.88;;;;;;;21.07;65.03;94795.75;4984710;28;20227;-64
2022/06/12 10:53:37;;;;;;;7.00;6.40;;;;;;;21.14;63.92;94778.59;5002396;28;20226;-65
2022/06/12 10:56:15;;;;;;;7.20;6.50;;;;;;;21.56;63.48;94786.75;5000616;28;20233;-66
2022/06/12 10:58:54;;;;;;;6.80;6.20;;;;;;;21.90;62.58;94781.78;5011897;28;20211;-65
2022/06/12 11:01:54;;;;;;;6.85;5.88;;;;;;;22.30;61.36;94786.56;5011338;28;20207;-65
2022/06/12 11:04:46;;;;;;;6.25;5.75;;;;;;;22.14;60.30;94785.34;4995213;28;20226;-66
2022/06/12 11:07:50;;;;;;;6.70;6.10;;;;;;;22.56;61.57;94785.31;4992233;28;20227;-65
2022/06/12 11:10:52;;;;;;;6.35;5.85;;;;;;;22.94;58.80;94783.22;4993298;28;20257;-63
2022/06/12 11:13:17;;;;;;;6.28;5.78;;;;;;;23.30;57.98;94779.47;5009192;28;20230;-62
2022/06/12 11:16:28;;;;;;;6.68;5.65;;;;;;;23.41;57.19;94778.59;5003382;28;20227;-65
2022/06/12 11:19:13;;;;;;;6.57;5.78;;;;;;;23.61;56.00;94780.09;4963554;28;20235;-68
2022/06/12 11:21:57;;;;;;;5.35;4.97;;;;;;;23.45;56.40;94782.47;4981972;28;20231;-70
2022/06/12 11:24:28;;;;;;;6.45;5.72;;;;;;;23.30;55.34;94780.25;4963006;28;20238;-69
2022/06/12 11:27:05;;;;;;;6.38;5.78;;;;;;;23.32;55.33;94780.03;4965954;28;20872;-65
2022/06/12 11:29:40;;;;;;;6.30;5.85;;;;;;;23.35;56.70;94779.56;4963596;28;20227;-65
2022/06/12 11:32:14;;;;;;;6.13;5.63;;;;;;;23.07;56.88;94775.78;4971806;28;20331;-68
2022/06/12 11:34:54;;;;;;;6.43;5.90;;;;;;;23.36;55.37;94772.31;4979803;28;20211;-66
2022/06/12 11:37:45;;;;;;;6.22;5.63;;;;;;;23.51;53.93;94773.44;4980366;28;20211;-66
2022/06/12 11:40:26;;;;;;;6.18;5.57;;;;;;;23.34;54.04;94772.56;4961599;28;20224;-62
2022/06/12 11:43:19;;;;;;;14.10;5.90;;;;;;;22.99;56.14;94772.63;4976331;28;20242;-68
2022/06/12 11:45:47;;;;;;;6.10;5.60;;;;;;;23.29;55.22;94767.91;4977592;28;20235;-68
2022/06/12 11:48:35;;;;;;;5.22;4.82;;;;;;;23.41;54.06;94767.88;4979831;28;20270;-68
2022/06/12 11:51:19;;;;;;;6.10;5.60;;;;;;;23.52;55.07;94767.03;4980501;28;20267;-64
2022/06/12 11:54:17;;;;;;;6.05;5.63;;;;;;;23.18;56.68;94755.34;4981913;28;20331;-68
2022/06/12 11:56:54;;;;;;;5.32;4.82;;;;;;;23.01;56.25;94754.44;4993217;28;20226;-64
2022/06/12 11:59:25;;;;;;;5.90;5.35;;;;;;;23.21;55.96;94756.75;4992636;28;20251;-64
2022/06/12 12:01:59;;;;;;;5.32;4.80;;;;;;;23.04;56.24;94759.31;5005432;28;20239;-64
2022/06/12 12:04:34;;;;;;;4.50;4.20;;;;;;;22.80;57.03;94753.97;4999825;28;20297;-68
2022/06/12 12:07:08;;;;;;;4.82;4.43;;;;;;;22.89;55.79;94757.09;5010766;28;20231;-66
2022/06/12 12:10:15;;;;;;;5.90;5.40;;;;;;;22.85;56.38;94756.78;4992478;28;20233;-66